Tropical Cyclones
[Index]
Main Index Home Page Stock Weather Photos Extreme Storms Discussion Storm News and Storm Chasing Reports Tropical Cyclones / Hurricanes / Typhoons Weather Data and Links Wild Fires / Bushfires Weather Observation Techniques Weather Picture Catalogue Tornado Pictures and Reports Stock Video Footage and DVDs for sale
Season 2008-2009 Tropical Cyclone HAMISH Track Map
Season 2008-2009 Summaries: [BoM-AU] [JTWC-AU] [JTWC-SIO] [JTWC-SPAC] [JTWC-SH]
<<- Previous TC | JTWC 2008-2009 Season | Next TC ->>

click for intensity scale information  Lat/long Grid: Show Hide

 Date Labels: Show Hide

Joint Typhoon Warning Centre Cyclone Data

Name: HAMISH

04 Mar 2009 18:00 UTC to 14 Mar 2009 00:00 UTC

    date/time    lat    long     hPa   cat  kts
2009-03-04 18   12.6   148.2    1010         15          
2009-03-05 00   13.0   147.7    1007         20          
2009-03-05 06   13.2   147.2    1004         25          
2009-03-05 12   13.5   147.0     996         35          
2009-03-05 18   14.0   146.9     985    1    50          
2009-03-06 00   14.5   146.9     978    2    60          
2009-03-06 00   14.5   146.9     978    2    60          
2009-03-06 06   15.0   146.9     974    2    65          
2009-03-06 06   15.0   146.9     974    2    65          
2009-03-06 12   15.5   147.3     967    3    75          
2009-03-06 12   15.5   147.3     967    3    75          
2009-03-06 12   15.5   147.3     967    3    75          
2009-03-06 18   16.3   147.8     956    3    90          
2009-03-06 18   16.3   147.8     956    3    90          
2009-03-06 18   16.3   147.8     956    3    90          
2009-03-07 00   17.1   148.3     948    4   100          
2009-03-07 00   17.1   148.3     948    4   100          
2009-03-07 00   17.1   148.3     948    4   100          
2009-03-07 06   17.9   148.8     933    4   120          
2009-03-07 06   17.9   148.8     933    4   120          
2009-03-07 06   17.9   148.8     933    4   120          
2009-03-07 12   18.6   149.4     926    5   130          
2009-03-07 12   18.6   149.4     926    5   130          
2009-03-07 12   18.6   149.4     926    5   130          
2009-03-07 18   19.2   150.0     922    5   135          
2009-03-07 18   19.2   150.0     922    5   135          
2009-03-07 18   19.2   150.0     922    5   135          
2009-03-08 00   20.0   150.5     922    5   135          
2009-03-08 00   20.0   150.5     922    5   135          
2009-03-08 00   20.0   150.5     922    5   135          
2009-03-08 06   20.7   151.0     926    5   130          
2009-03-08 06   20.7   151.0     926    5   130          
2009-03-08 06   20.7   151.0     926    5   130          
2009-03-08 12   21.2   151.5     933    4   120          
2009-03-08 12   21.2   151.5     933    4   120          
2009-03-08 12   21.2   151.5     933    4   120          
2009-03-08 18   21.5   152.2     937    4   115          
2009-03-08 18   21.5   152.2     937    4   115          
2009-03-08 18   21.5   152.2     937    4   115          
2009-03-09 00   22.1   152.7     937    4   115          
2009-03-09 00   22.1   152.7     937    4   115          
2009-03-09 00   22.1   152.7     937    4   115          
2009-03-09 06   22.8   153.3     937    4   115          
2009-03-09 06   22.8   153.3     937    4   115          
2009-03-09 06   22.8   153.3     937    4   115          
2009-03-09 12   23.2   153.8     937    4   115          
2009-03-09 12   23.2   153.8     937    4   115          
2009-03-09 12   23.2   153.8     937    4   115          
2009-03-09 18   23.7   154.2     941    4   110          
2009-03-09 18   23.7   154.2     941    4   110          
2009-03-09 18   23.7   154.2     941    4   110          
2009-03-10 00   24.3   154.8     948    4   100          
2009-03-10 00   24.3   154.8     948    4   100          
2009-03-10 00   24.3   154.8     948    4   100          
2009-03-10 06   24.7   155.5     956    3    90          
2009-03-10 06   24.7   155.5     956    3    90          
2009-03-10 06   24.7   155.5     956    3    90          
2009-03-10 12   24.6   156.0     959    3    85          
2009-03-10 12   24.6   156.0     959    3    85          
2009-03-10 12   24.6   156.0     959    3    85          
2009-03-10 18   24.6   155.6     963    3    80          
2009-03-10 18   24.6   155.6     963    3    80          
2009-03-10 18   24.6   155.6     963    3    80          
2009-03-11 00   24.3   155.1     978    2    60          
2009-03-11 00   24.3   155.1     978    2    60          
2009-03-11 06   23.5   154.9     985    1    50          
2009-03-11 12   22.5   154.7     985    1    50          
2009-03-11 18   21.9   153.8     996         35          
2009-03-12 00   21.8   152.7    1004         25          
2009-03-12 06   21.4   151.9    1004         25          
2009-03-12 12   20.8   151.4    1004         25          
2009-03-12 18   20.4   151.0    1004         25          
2009-03-13 00   20.1   150.9    1004         25          
2009-03-13 06   19.8   150.7    1007         20          
2009-03-13 12   19.3   150.4    1007         20          
2009-03-13 18   18.8   149.6    1007         20          
2009-03-14 00   17.7   149.1    1007         20          
Winds are 1-min average.

Tropical cyclone tracks developed by Michael Bath using data from the Joint Typhoon Warning Centre Best Tracks and Google Maps.


[Australian Severe Weather index] [Copyright Notice] [Email Contacts] [Search This Site] [Privacy Policy]
Document: tropical_cyclone_hamish.htm Updated: 28 June 2017